createdAt,value
2019-03-09T00:02:21.046Z,99.90
2019-03-09T00:05:28.628Z,99.90
2019-03-09T00:08:36.190Z,99.90
2019-03-09T00:11:43.755Z,99.90
2019-03-09T00:14:51.312Z,99.90
2019-03-09T00:17:58.798Z,99.90
2019-03-09T00:21:06.266Z,99.90
2019-03-09T00:24:38.909Z,99.90
2019-03-09T00:28:07.982Z,99.90
2019-03-09T00:31:29.770Z,99.90
2019-03-09T00:34:38.192Z,99.90
2019-03-09T00:37:45.658Z,99.90
2019-03-09T00:40:53.204Z,99.90
2019-03-09T00:44:00.650Z,99.90
2019-03-09T00:47:08.082Z,99.90
2019-03-09T00:50:15.586Z,99.90
2019-03-09T00:53:23.172Z,99.90
2019-03-09T00:56:30.595Z,99.90
2019-03-09T00:59:39.656Z,99.90
2019-03-09T01:02:47.083Z,99.90
2019-03-09T01:05:54.530Z,99.90
2019-03-09T01:09:02.085Z,99.90
2019-03-09T01:12:11.104Z,99.90
2019-03-09T01:15:18.640Z,99.90
2019-03-09T01:18:26.121Z,99.90
2019-03-09T01:21:33.593Z,99.90
2019-03-09T01:24:40.998Z,99.90
2019-03-09T01:27:48.554Z,99.90
2019-03-09T01:30:56.021Z,99.90
2019-03-09T01:34:03.497Z,99.90
2019-03-09T01:37:10.918Z,99.90
2019-03-09T01:40:18.416Z,99.90
2019-03-09T01:43:25.900Z,99.90
2019-03-09T01:46:33.353Z,99.90
2019-03-09T01:49:40.774Z,99.90
2019-03-09T01:52:48.204Z,99.90
2019-03-09T01:55:55.780Z,99.90
2019-03-09T01:59:03.172Z,99.90
2019-03-09T02:02:10.672Z,99.90
2019-03-09T02:05:18.560Z,99.90
2019-03-09T02:08:25.988Z,99.90
2019-03-09T02:11:33.621Z,99.90
2019-03-09T02:14:41.132Z,99.90
2019-03-09T02:17:48.651Z,99.90
2019-03-09T02:20:56.152Z,99.90
2019-03-09T02:24:03.651Z,99.90
2019-03-09T02:27:11.091Z,99.90
2019-03-09T02:30:18.929Z,99.90
2019-03-09T02:33:26.346Z,99.90
2019-03-09T02:36:33.915Z,99.90
2019-03-09T02:39:52.739Z,99.90
2019-03-09T02:43:00.257Z,99.90
2019-03-09T02:46:07.843Z,99.90
2019-03-09T02:49:15.357Z,99.90
2019-03-09T02:52:23.055Z,99.90
2019-03-09T02:55:30.501Z,99.90
2019-03-09T02:58:38.001Z,99.90
2019-03-09T03:02:04.271Z,99.90
2019-03-09T03:05:11.927Z,99.90
2019-03-09T03:08:20.189Z,99.90
2019-03-09T03:11:27.682Z,99.90
2019-03-09T03:14:37.185Z,99.90
2019-03-09T03:17:44.621Z,99.90
2019-03-09T03:20:52.173Z,99.90
2019-03-09T03:23:59.655Z,99.90
2019-03-09T03:27:07.092Z,99.90
2019-03-09T03:30:14.640Z,99.90
2019-03-09T03:33:22.058Z,99.90
2019-03-09T03:36:29.500Z,99.90
2019-03-09T03:39:36.993Z,99.90
2019-03-09T03:42:44.494Z,99.90
2019-03-09T03:45:53.350Z,99.90
2019-03-09T03:49:03.774Z,99.90
2019-03-09T03:52:10.907Z,99.90
2019-03-09T03:55:18.423Z,99.90
2019-03-09T03:58:25.991Z,99.90
2019-03-09T04:01:33.466Z,99.90
2019-03-09T04:04:40.917Z,99.90
2019-03-09T04:07:48.386Z,99.90
2019-03-09T04:10:55.833Z,99.90
2019-03-09T04:14:03.247Z,99.90
2019-03-09T04:17:10.796Z,99.90
2019-03-09T04:20:18.451Z,99.90
2019-03-09T04:23:25.943Z,99.90
2019-03-09T04:26:33.894Z,99.90
2019-03-09T04:29:41.313Z,99.90
2019-03-09T04:32:48.772Z,99.90
2019-03-09T04:35:56.322Z,99.90
2019-03-09T04:39:05.465Z,99.90
2019-03-09T04:42:13.531Z,99.90
2019-03-09T04:45:20.993Z,99.90
2019-03-09T04:48:28.402Z,99.90
2019-03-09T04:51:35.950Z,99.90
2019-03-09T04:54:43.456Z,99.90
2019-03-09T04:57:50.869Z,99.90
2019-03-09T05:00:58.356Z,99.90
2019-03-09T05:04:37.850Z,99.90
2019-03-09T05:07:54.574Z,99.90
2019-03-09T05:11:05.810Z,99.90
2019-03-09T05:14:20.610Z,99.90
2019-03-09T05:17:27.999Z,99.90
2019-03-09T05:20:35.502Z,99.90
2019-03-09T05:23:42.981Z,99.90
2019-03-09T05:26:50.398Z,99.90
2019-03-09T05:29:58.337Z,99.90
2019-03-09T05:33:05.793Z,99.90
2019-03-09T05:36:13.356Z,99.90
2019-03-09T05:39:20.868Z,99.90
2019-03-09T05:42:28.444Z,99.90
2019-03-09T05:45:36.063Z,99.90
2019-03-09T05:48:43.619Z,99.90
2019-03-09T05:52:28.965Z,99.90
2019-03-09T05:55:39.711Z,99.90
2019-03-09T05:58:47.314Z,99.90
2019-03-09T06:01:54.851Z,99.90
2019-03-09T06:05:02.327Z,99.90
2019-03-09T06:08:10.298Z,99.90
2019-03-09T06:11:17.818Z,99.90
2019-03-09T06:14:25.241Z,99.90
2019-03-09T06:17:32.807Z,99.90
2019-03-09T06:20:40.398Z,99.90
2019-03-09T06:23:47.905Z,99.90
2019-03-09T06:26:55.403Z,99.90
2019-03-09T06:30:02.896Z,99.90
2019-03-09T06:33:25.157Z,99.90
2019-03-09T06:37:09.851Z,99.90
2019-03-09T06:40:17.354Z,99.90
2019-03-09T06:43:24.869Z,99.90
2019-03-09T06:46:34.040Z,99.90
2019-03-09T06:49:41.578Z,99.90
2019-03-09T06:52:49.174Z,99.90
2019-03-09T06:55:56.771Z,99.90
2019-03-09T06:59:04.285Z,99.90
2019-03-09T07:02:12.835Z,99.90
2019-03-09T07:05:20.389Z,99.90
2019-03-09T07:08:27.983Z,99.90
2019-03-09T07:11:35.819Z,99.90
2019-03-09T07:15:28.670Z,99.90
2019-03-09T07:18:38.685Z,99.90
2019-03-09T07:21:46.269Z,99.90
2019-03-09T07:24:53.929Z,99.90
2019-03-09T07:28:15.972Z,99.90
2019-03-09T07:31:24.314Z,99.90
2019-03-09T07:34:33.251Z,99.90
2019-03-09T07:37:40.741Z,99.90
2019-03-09T07:40:48.270Z,99.90
2019-03-09T07:43:57.015Z,99.90
2019-03-09T07:47:04.509Z,99.90
2019-03-09T07:50:12.790Z,99.90
2019-03-09T07:53:21.759Z,99.90
2019-03-09T07:56:30.301Z,99.90
2019-03-09T07:59:37.790Z,99.90
2019-03-09T08:02:45.300Z,99.90
2019-03-09T08:05:52.975Z,99.90
2019-03-09T08:09:00.501Z,99.90
2019-03-09T08:12:09.607Z,99.90
2019-03-09T08:15:18.177Z,99.90
2019-03-09T08:18:25.855Z,99.30
2019-03-09T08:21:33.511Z,97.60
2019-03-09T08:24:41.084Z,96.80
2019-03-09T08:27:48.795Z,97.10
2019-03-09T08:30:56.394Z,97.80
2019-03-09T08:34:03.934Z,98.20
2019-03-09T08:37:11.757Z,99.50
2019-03-09T08:40:19.355Z,99.40
2019-03-09T08:43:28.266Z,98.00
2019-03-09T08:46:35.827Z,98.80
2019-03-09T08:49:43.459Z,99.10
2019-03-09T08:52:51.121Z,98.90
2019-03-09T08:55:58.706Z,99.50
2019-03-09T08:59:09.396Z,98.80
2019-03-09T09:02:17.542Z,97.00
2019-03-09T09:05:25.111Z,96.00
2019-03-09T09:08:32.640Z,93.70
2019-03-09T09:11:40.241Z,91.90
2019-03-09T09:14:48.296Z,94.80
2019-03-09T09:17:56.027Z,97.00
2019-03-09T09:21:03.587Z,96.80
2019-03-09T09:24:12.473Z,96.20
2019-03-09T09:27:20.075Z,96.40
2019-03-09T09:30:28.566Z,95.50
2019-03-09T09:33:37.539Z,96.10
2019-03-09T09:36:45.174Z,96.60
2019-03-09T09:39:52.785Z,95.30
2019-03-09T09:43:00.404Z,95.70
2019-03-09T09:46:08.051Z,95.90
2019-03-09T09:49:15.736Z,97.00
2019-03-09T09:52:23.213Z,97.70
2019-03-09T09:55:30.779Z,97.10
2019-03-09T09:58:38.397Z,98.20
2019-03-09T10:01:46.137Z,98.60
2019-03-09T10:04:53.611Z,98.70
2019-03-09T10:08:03.540Z,98.70
2019-03-09T10:11:11.131Z,98.80
2019-03-09T10:14:18.587Z,99.00
2019-03-09T10:17:27.125Z,99.00
2019-03-09T10:20:34.691Z,99.40
2019-03-09T10:23:42.219Z,99.90
2019-03-09T10:26:49.790Z,99.90
2019-03-09T10:29:57.257Z,99.90
2019-03-09T10:33:04.782Z,99.90
2019-03-09T10:36:12.337Z,99.90
2019-03-09T10:39:19.774Z,99.90
2019-03-09T10:42:27.269Z,99.90
2019-03-09T10:45:34.740Z,99.90
2019-03-09T10:48:42.223Z,99.90
2019-03-09T10:51:49.829Z,99.90
2019-03-09T10:54:57.667Z,99.90
2019-03-09T10:58:05.282Z,99.90
2019-03-09T11:01:12.743Z,99.90
2019-03-09T11:04:27.316Z,99.90
2019-03-09T11:07:29.684Z,99.90
2019-03-09T11:10:37.167Z,99.90
2019-03-09T11:13:51.798Z,99.90
2019-03-09T11:16:55.681Z,99.90
2019-03-09T11:20:06.589Z,99.90
2019-03-09T11:23:14.196Z,99.90
2019-03-09T11:26:21.644Z,99.90
2019-03-09T11:29:29.151Z,99.90
2019-03-09T11:32:36.608Z,99.90
2019-03-09T11:35:44.172Z,99.90
2019-03-09T11:38:51.683Z,99.90
2019-03-09T11:41:59.138Z,99.90
2019-03-09T11:45:08.370Z,99.90
2019-03-09T11:48:15.988Z,99.90
2019-03-09T11:51:23.553Z,99.90
2019-03-09T11:54:30.977Z,99.90
2019-03-09T11:57:38.436Z,99.90
2019-03-09T12:00:46.997Z,99.90
2019-03-09T12:03:54.442Z,99.90
2019-03-09T12:07:01.987Z,99.90
2019-03-09T12:10:10.916Z,99.90
2019-03-09T12:13:18.396Z,99.90
2019-03-09T12:16:25.933Z,99.90
2019-03-09T12:19:33.413Z,99.90
2019-03-09T12:22:40.988Z,99.90
2019-03-09T12:25:48.543Z,99.90
2019-03-09T12:28:57.630Z,99.90
2019-03-09T12:32:05.226Z,99.90
2019-03-09T12:35:12.791Z,99.90
2019-03-09T12:38:20.439Z,99.90
2019-03-09T12:41:27.928Z,99.90
2019-03-09T12:44:35.383Z,99.90
2019-03-09T12:47:43.017Z,99.90
2019-03-09T12:50:50.470Z,99.90
2019-03-09T12:53:58.028Z,99.90
2019-03-09T12:57:05.683Z,99.90
2019-03-09T13:00:15.279Z,99.90
2019-03-09T13:03:22.767Z,99.90
2019-03-09T13:06:30.239Z,99.90
2019-03-09T13:09:37.725Z,99.90
2019-03-09T13:12:45.201Z,99.90
2019-03-09T13:15:52.714Z,99.90
2019-03-09T13:19:00.183Z,99.90
2019-03-09T13:22:08.141Z,99.90
2019-03-09T13:25:15.970Z,99.90
2019-03-09T13:28:23.456Z,99.90
2019-03-09T13:31:31.030Z,99.90
2019-03-09T13:34:38.451Z,99.90
2019-03-09T13:37:46.032Z,99.90
2019-03-09T13:40:53.641Z,99.90
2019-03-09T13:44:01.191Z,99.90
2019-03-09T13:47:08.705Z,99.90
2019-03-09T13:50:16.253Z,99.90
2019-03-09T13:53:23.780Z,99.90
2019-03-09T13:56:31.266Z,99.90
2019-03-09T13:59:38.675Z,99.90
2019-03-09T14:02:46.202Z,99.90
2019-03-09T14:05:54.322Z,99.90
2019-03-09T14:09:02.747Z,99.90
2019-03-09T14:12:11.863Z,99.90
2019-03-09T14:15:19.305Z,99.90
2019-03-09T14:18:26.948Z,99.90
2019-03-09T14:21:35.496Z,99.90
2019-03-09T14:24:43.046Z,99.90
2019-03-09T14:27:50.494Z,99.90
2019-03-09T14:30:57.957Z,99.90
2019-03-09T14:34:05.510Z,99.90
2019-03-09T14:37:13.039Z,99.90
2019-03-09T14:40:20.474Z,99.90
2019-03-09T14:43:28.000Z,99.90
2019-03-09T14:46:35.477Z,99.90
2019-03-09T14:49:47.468Z,99.90
2019-03-09T14:52:54.900Z,99.90
2019-03-09T14:56:02.502Z,99.90
2019-03-09T14:59:10.121Z,99.90
2019-03-09T15:02:17.537Z,99.90
2019-03-09T15:05:25.092Z,99.90
2019-03-09T15:08:33.051Z,99.90
2019-03-09T15:11:40.549Z,99.90
2019-03-09T15:14:48.138Z,99.90
2019-03-09T15:17:55.593Z,99.90
2019-03-09T15:21:03.069Z,99.90
2019-03-09T15:24:10.617Z,99.90
2019-03-09T15:27:18.191Z,99.90
2019-03-09T15:30:25.680Z,99.90
2019-03-09T15:33:33.222Z,99.90
2019-03-09T15:36:40.774Z,99.90
2019-03-09T15:39:48.263Z,99.90
2019-03-09T15:42:55.880Z,99.90
2019-03-09T15:46:03.411Z,99.90
2019-03-09T15:49:10.998Z,99.90
2019-03-09T15:52:18.422Z,99.90
2019-03-09T15:55:25.917Z,99.90
2019-03-09T15:58:34.529Z,99.90
2019-03-09T16:01:42.188Z,99.90
2019-03-09T16:04:50.787Z,99.90
2019-03-09T16:07:58.239Z,99.90
2019-03-09T16:11:05.827Z,99.90
2019-03-09T16:14:13.391Z,99.90
2019-03-09T16:17:21.042Z,99.90
2019-03-09T16:20:28.475Z,99.90
2019-03-09T16:23:35.928Z,99.90
2019-03-09T16:26:43.444Z,99.90
2019-03-09T16:29:52.984Z,99.90
2019-03-09T16:33:00.430Z,99.90
2019-03-09T16:36:09.926Z,99.90
2019-03-09T16:39:17.733Z,99.90
2019-03-09T16:42:25.208Z,99.90
2019-03-09T16:45:32.678Z,99.90
2019-03-09T16:48:47.712Z,99.90
2019-03-09T16:51:55.663Z,99.90
2019-03-09T16:55:03.201Z,99.90
2019-03-09T16:58:10.831Z,99.90
2019-03-09T17:01:19.368Z,99.90
2019-03-09T17:04:27.124Z,99.90
2019-03-09T17:07:35.698Z,99.90
2019-03-09T17:10:43.296Z,99.90
2019-03-09T17:13:50.730Z,99.90
2019-03-09T17:16:58.562Z,99.90
2019-03-09T17:20:06.722Z,99.90
2019-03-09T17:23:14.476Z,99.90
2019-03-09T17:26:23.001Z,99.90
2019-03-09T17:29:30.506Z,99.90
2019-03-09T17:32:37.937Z,99.90
2019-03-09T17:35:45.394Z,99.90
2019-03-09T17:38:53.350Z,99.90
2019-03-09T17:42:02.360Z,99.90
2019-03-09T17:45:20.216Z,99.90
2019-03-09T17:48:27.741Z,99.90
2019-03-09T17:51:35.244Z,99.90
2019-03-09T17:54:43.883Z,99.90
2019-03-09T17:57:51.338Z,99.90
2019-03-09T18:00:58.850Z,99.90
2019-03-09T18:04:06.451Z,99.90
2019-03-09T18:07:13.945Z,99.90
2019-03-09T18:10:34.473Z,99.90
2019-03-09T18:13:42.030Z,99.90
2019-03-09T18:16:52.652Z,99.90
2019-03-09T18:19:59.033Z,99.90
2019-03-09T18:23:06.512Z,99.90
2019-03-09T18:26:13.991Z,99.90
2019-03-09T18:29:21.910Z,99.90
2019-03-09T18:32:29.484Z,99.90
2019-03-09T18:35:37.016Z,99.90
2019-03-09T18:38:44.488Z,99.90
2019-03-09T18:41:52.016Z,99.90
2019-03-09T18:45:00.777Z,99.90
2019-03-09T18:48:09.766Z,99.90
2019-03-09T18:51:18.456Z,99.90
2019-03-09T18:54:25.947Z,99.90
2019-03-09T18:57:33.464Z,99.90
2019-03-09T19:00:40.962Z,99.90
2019-03-09T19:03:48.532Z,99.90
2019-03-09T19:06:56.043Z,99.90
2019-03-09T19:10:03.565Z,99.90
2019-03-09T19:13:11.147Z,99.90
2019-03-09T19:16:18.696Z,99.90
2019-03-09T19:19:29.166Z,99.90
2019-03-09T19:22:38.072Z,99.90
2019-03-09T19:25:45.618Z,99.90
2019-03-09T19:28:54.418Z,99.90
2019-03-09T19:32:01.985Z,99.90
2019-03-09T19:35:10.517Z,99.90
2019-03-09T19:38:18.015Z,99.90
2019-03-09T19:41:25.552Z,99.90
2019-03-09T19:44:33.181Z,99.90
2019-03-09T19:47:40.703Z,99.90
2019-03-09T19:50:48.246Z,99.90
2019-03-09T19:53:56.306Z,99.90
2019-03-09T19:57:03.742Z,99.90
2019-03-09T20:00:12.287Z,99.90
2019-03-09T20:03:21.050Z,99.90
2019-03-09T20:06:28.549Z,99.90
2019-03-09T20:09:36.128Z,99.90
2019-03-09T20:12:45.606Z,99.90
2019-03-09T20:15:53.064Z,99.90
2019-03-09T20:19:00.627Z,99.90
2019-03-09T20:22:08.165Z,99.90
2019-03-09T20:25:17.042Z,99.90
2019-03-09T20:28:24.866Z,99.90
2019-03-09T20:31:32.821Z,99.90
2019-03-09T20:34:41.285Z,99.90
2019-03-09T20:37:48.856Z,99.90
2019-03-09T20:40:56.439Z,99.90
2019-03-09T20:44:03.900Z,99.90
2019-03-09T20:47:11.483Z,99.90
2019-03-09T20:50:22.595Z,99.90
2019-03-09T20:53:30.122Z,99.90
2019-03-09T20:56:37.721Z,99.90
2019-03-09T20:59:45.237Z,99.90
2019-03-09T21:02:52.688Z,99.90
2019-03-09T21:06:00.276Z,99.90
2019-03-09T21:09:08.667Z,99.90
2019-03-09T21:12:17.916Z,99.90
2019-03-09T21:15:25.359Z,99.90
2019-03-09T21:18:33.942Z,99.90
2019-03-09T21:21:41.470Z,99.90
2019-03-09T21:24:48.963Z,99.90
2019-03-09T21:27:56.491Z,99.90
2019-03-09T21:31:04.050Z,99.90
2019-03-09T21:34:11.499Z,99.90
2019-03-09T21:37:19.036Z,99.90
2019-03-09T21:40:26.490Z,99.90
2019-03-09T21:43:34.065Z,99.90
2019-03-09T21:46:42.640Z,99.90
2019-03-09T21:49:51.400Z,99.90
2019-03-09T21:52:59.098Z,99.90
2019-03-09T21:56:08.813Z,99.90
2019-03-09T21:59:16.329Z,99.90
2019-03-09T22:02:26.517Z,99.90
2019-03-09T22:05:33.999Z,99.90
2019-03-09T22:08:41.570Z,99.90
2019-03-09T22:11:49.052Z,99.90
2019-03-09T22:14:56.652Z,99.90
2019-03-09T22:18:04.586Z,99.90
2019-03-09T22:21:12.047Z,99.90
2019-03-09T22:24:19.491Z,99.90
2019-03-09T22:27:26.923Z,99.90
2019-03-09T22:30:34.322Z,99.90
2019-03-09T22:33:41.765Z,99.90
2019-03-09T22:36:49.374Z,99.90
2019-03-09T22:39:58.297Z,99.90
2019-03-09T22:43:05.889Z,99.90
2019-03-09T22:46:13.332Z,99.90
2019-03-09T22:49:20.745Z,99.90
2019-03-09T22:52:28.167Z,99.90
2019-03-09T22:55:35.642Z,99.90
2019-03-09T22:58:43.146Z,99.90
2019-03-09T23:01:50.540Z,99.90
2019-03-09T23:04:58.122Z,99.90
2019-03-09T23:08:05.632Z,99.90
2019-03-09T23:11:13.069Z,99.90
2019-03-09T23:14:20.510Z,99.90
2019-03-09T23:17:27.994Z,99.90
2019-03-09T23:20:35.480Z,99.90
2019-03-09T23:23:42.930Z,99.90
2019-03-09T23:26:50.379Z,99.90
2019-03-09T23:29:57.863Z,99.90
2019-03-09T23:33:05.397Z,99.90
2019-03-09T23:36:12.886Z,99.90
2019-03-09T23:39:21.403Z,99.90
2019-03-09T23:42:28.936Z,99.90
2019-03-09T23:45:36.382Z,99.90
2019-03-09T23:48:44.826Z,99.90
2019-03-09T23:51:52.240Z,99.90
2019-03-09T23:54:59.706Z,99.90
2019-03-09T23:58:07.126Z,99.90
